createdAt,value
2023-03-06T00:01:08.586Z,99720.28
2023-03-06T00:03:35.298Z,99719.47
2023-03-06T00:06:02.215Z,99715.56
2023-03-06T00:08:29.618Z,99715.72
2023-03-06T00:10:56.888Z,99719.06
2023-03-06T00:13:24.113Z,99714.06
2023-03-06T00:15:50.711Z,99720.44
2023-03-06T00:18:20.371Z,99717.50
2023-03-06T00:20:47.205Z,99720.19
2023-03-06T00:23:13.908Z,99714.81
2023-03-06T00:25:44.842Z,99715.19
2023-03-06T00:28:12.378Z,99711.72
2023-03-06T00:30:39.199Z,99714.53
2023-03-06T00:33:05.809Z,99718.03
2023-03-06T00:35:32.549Z,99717.53
2023-03-06T00:37:59.900Z,99710.84
2023-03-06T00:40:27.032Z,99709.34
2023-03-06T00:42:53.648Z,99710.31
2023-03-06T00:45:20.500Z,99700.22
2023-03-06T00:47:47.213Z,99707.72
2023-03-06T00:50:13.894Z,99707.66
2023-03-06T00:52:41.995Z,99706.16
2023-03-06T00:55:09.468Z,99703.22
2023-03-06T00:57:36.046Z,99700.72
2023-03-06T01:00:06.384Z,99702.75
2023-03-06T01:02:35.105Z,99695.84
2023-03-06T01:05:01.967Z,99701.72
2023-03-06T01:07:28.643Z,99697.19
2023-03-06T01:09:55.264Z,99697.38
2023-03-06T01:12:24.195Z,99699.47
2023-03-06T01:14:50.863Z,99689.97
2023-03-06T01:17:17.839Z,99684.72
2023-03-06T01:19:44.355Z,99690.69
2023-03-06T01:22:10.899Z,99680.44
2023-03-06T01:24:37.593Z,99681.31
2023-03-06T01:27:04.206Z,99682.97
2023-03-06T01:29:30.854Z,99675.44
2023-03-06T01:31:57.498Z,99679.25
2023-03-06T01:34:24.170Z,99674.38
2023-03-06T01:36:50.741Z,99669.78
2023-03-06T01:39:17.382Z,99669.63
2023-03-06T01:41:44.044Z,99667.94
2023-03-06T01:44:13.780Z,99666.69
2023-03-06T01:46:44.635Z,99667.94
2023-03-06T01:49:13.312Z,99652.81
2023-03-06T01:51:54.399Z,99649.47
2023-03-06T01:54:34.221Z,99656.31
2023-03-06T01:57:05.685Z,99646.84
2023-03-06T01:59:34.831Z,99640.28
2023-03-06T02:02:03.766Z,99637.66
2023-03-06T02:04:31.470Z,99638.66
2023-03-06T02:07:01.202Z,99636.34
2023-03-06T02:09:30.945Z,99634.28
2023-03-06T02:11:57.903Z,99635.72
2023-03-06T02:14:25.046Z,99635.94
2023-03-06T02:16:51.666Z,99639.59
2023-03-06T02:19:50.393Z,99636.09
2023-03-06T02:22:16.928Z,99640.97
2023-03-06T02:25:04.219Z,99639.09
2023-03-06T02:27:31.104Z,99644.94
2023-03-06T02:29:57.687Z,99644.72
2023-03-06T02:32:24.349Z,99643.09
2023-03-06T02:34:55.143Z,99639.38
2023-03-06T02:37:23.769Z,99643.84
2023-03-06T02:39:57.501Z,99649.59
2023-03-06T02:42:26.678Z,99643.22
2023-03-06T02:44:54.109Z,99644.22
2023-03-06T02:47:21.690Z,99648.41
2023-03-06T02:49:48.275Z,99647.72
2023-03-06T02:52:14.865Z,99645.88
2023-03-06T02:54:42.570Z,99647.22
2023-03-06T02:57:09.261Z,99642.00
2023-03-06T02:59:35.985Z,99645.59
2023-03-06T03:02:02.693Z,99650.91
2023-03-06T03:04:29.250Z,99646.38
2023-03-06T03:06:55.890Z,99648.28
2023-03-06T03:09:22.613Z,99647.19
2023-03-06T03:11:51.213Z,99655.28
2023-03-06T03:14:17.985Z,99650.75
2023-03-06T03:16:45.457Z,99651.25
2023-03-06T03:19:12.039Z,99649.66
2023-03-06T03:21:40.938Z,99644.00
2023-03-06T03:24:08.097Z,99645.63
2023-03-06T03:26:34.668Z,99640.75
2023-03-06T03:29:01.343Z,99640.19
2023-03-06T03:31:27.904Z,99625.66
2023-03-06T03:33:54.462Z,99622.38
2023-03-06T03:36:21.175Z,99614.28
2023-03-06T03:38:47.703Z,99608.13
2023-03-06T03:41:14.385Z,99607.44
2023-03-06T03:43:40.919Z,99607.00
2023-03-06T03:46:07.539Z,99603.69
2023-03-06T03:48:34.131Z,99608.03
2023-03-06T03:51:12.122Z,99606.81
2023-03-06T03:53:39.807Z,99611.78
2023-03-06T03:56:07.077Z,99606.66
2023-03-06T03:58:33.814Z,99604.22
2023-03-06T04:01:01.174Z,99601.72
2023-03-06T04:03:27.914Z,99601.97
2023-03-06T04:05:56.557Z,99591.44
2023-03-06T04:08:24.241Z,99584.22
2023-03-06T04:10:51.949Z,99589.78
2023-03-06T04:13:21.120Z,99590.47
2023-03-06T04:15:50.194Z,99588.00
2023-03-06T04:18:17.441Z,99585.25
2023-03-06T04:20:45.173Z,99589.41
2023-03-06T04:23:12.115Z,99594.34
2023-03-06T04:25:38.833Z,99599.22
2023-03-06T04:28:05.532Z,99596.66
2023-03-06T04:30:32.381Z,99591.06
2023-03-06T04:32:59.232Z,99588.59
2023-03-06T04:35:26.292Z,99588.44
2023-03-06T04:37:53.258Z,99585.50
2023-03-06T04:40:23.216Z,99593.25
2023-03-06T04:42:49.935Z,99592.03
2023-03-06T04:45:16.698Z,99586.63
2023-03-06T04:47:43.323Z,99591.72
2023-03-06T04:50:11.273Z,99588.00
2023-03-06T04:52:37.960Z,99582.66
2023-03-06T04:55:08.681Z,99579.22
2023-03-06T04:57:40.037Z,99571.63
2023-03-06T05:00:10.313Z,99575.78
2023-03-06T05:02:36.946Z,99572.25
2023-03-06T05:05:04.054Z,99575.53
2023-03-06T05:07:30.761Z,99573.25
2023-03-06T05:09:57.313Z,99567.09
2023-03-06T05:12:24.865Z,99573.44
2023-03-06T05:14:51.482Z,99585.25
2023-03-06T05:17:18.028Z,99593.63
2023-03-06T05:19:44.608Z,99588.22
2023-03-06T05:22:11.177Z,99585.75
2023-03-06T05:24:38.054Z,99581.94
2023-03-06T05:27:04.738Z,99585.25
2023-03-06T05:29:31.241Z,99581.38
2023-03-06T05:31:58.994Z,99583.81
2023-03-06T05:34:25.653Z,99592.06
2023-03-06T05:36:52.208Z,99588.38
2023-03-06T05:39:18.770Z,99586.06
2023-03-06T05:41:45.336Z,99594.69
2023-03-06T05:44:11.954Z,99587.56
2023-03-06T05:46:38.717Z,99589.09
2023-03-06T05:49:05.322Z,99582.66
2023-03-06T05:51:31.929Z,99575.78
2023-03-06T05:53:58.547Z,99568.22
2023-03-06T05:56:25.154Z,99569.63
2023-03-06T05:58:51.815Z,99561.97
2023-03-06T06:01:20.311Z,99561.19
2023-03-06T06:03:47.529Z,99563.63
2023-03-06T06:06:15.139Z,99553.91
2023-03-06T06:08:41.884Z,99538.97
2023-03-06T06:11:10.292Z,99543.78
2023-03-06T06:13:38.568Z,99532.50
2023-03-06T06:16:19.116Z,99542.34
2023-03-06T06:18:45.807Z,99540.13
2023-03-06T06:21:14.576Z,99534.88
2023-03-06T06:23:41.625Z,99536.16
2023-03-06T06:26:09.681Z,99540.56
2023-03-06T06:28:36.462Z,99540.13
2023-03-06T06:31:13.149Z,99548.75
2023-03-06T06:33:40.942Z,99539.88
2023-03-06T06:36:16.869Z,99550.44
2023-03-06T06:38:43.935Z,99554.75
2023-03-06T06:41:36.105Z,99563.84
2023-03-06T06:43:59.114Z,99563.50
2023-03-06T06:47:14.402Z,99565.94
2023-03-06T06:49:13.574Z,99558.94
2023-03-06T06:51:41.402Z,99561.94
2023-03-06T06:54:08.465Z,99563.88
2023-03-06T06:56:40.048Z,99563.84
2023-03-06T06:59:16.018Z,99553.00
2023-03-06T07:01:44.008Z,99551.91
2023-03-06T07:04:14.299Z,99554.19
2023-03-06T07:06:42.079Z,99555.78
2023-03-06T07:09:09.193Z,99562.09
2023-03-06T07:11:37.461Z,99559.47
2023-03-06T07:14:04.266Z,99558.16
2023-03-06T07:16:30.873Z,99563.78
2023-03-06T07:18:57.517Z,99566.91
2023-03-06T07:21:26.254Z,99568.91
2023-03-06T07:23:54.297Z,99561.59
2023-03-06T07:26:20.986Z,99568.66
2023-03-06T07:28:53.043Z,99565.53
2023-03-06T07:31:22.432Z,99570.69
2023-03-06T07:33:54.158Z,99559.56
2023-03-06T07:36:22.162Z,99575.03
2023-03-06T07:38:48.795Z,99569.22
2023-03-06T07:41:16.607Z,99563.53
2023-03-06T07:43:45.539Z,99577.50
2023-03-06T07:46:14.221Z,99578.38
2023-03-06T07:48:42.888Z,99571.91
2023-03-06T07:51:16.413Z,99577.63
2023-03-06T07:53:43.531Z,99575.97
2023-03-06T07:56:11.181Z,99580.44
2023-03-06T07:58:40.850Z,99576.75
2023-03-06T08:01:10.133Z,99583.38
2023-03-06T08:03:37.559Z,99588.66
2023-03-06T08:06:13.127Z,99589.47
2023-03-06T08:08:41.239Z,99583.75
2023-03-06T08:11:09.732Z,99590.44
2023-03-06T08:13:36.853Z,99589.19
2023-03-06T08:16:03.855Z,99593.81
2023-03-06T08:18:30.863Z,99585.59
2023-03-06T08:21:04.806Z,99579.38
2023-03-06T08:23:31.964Z,99588.28
2023-03-06T08:26:00.870Z,99587.28
2023-03-06T08:28:28.610Z,99588.47
2023-03-06T08:30:56.383Z,99589.13
2023-03-06T08:33:23.858Z,99583.91
2023-03-06T08:35:50.634Z,99588.81
2023-03-06T08:38:17.293Z,99593.28
2023-03-06T08:40:43.866Z,99586.38
2023-03-06T08:43:14.398Z,99578.97
2023-03-06T08:45:41.167Z,99579.50
2023-03-06T08:48:07.930Z,99574.22
2023-03-06T08:50:34.737Z,99578.84
2023-03-06T08:53:01.392Z,99579.03
2023-03-06T08:55:28.286Z,99579.22
2023-03-06T08:57:55.007Z,99581.03
2023-03-06T09:00:21.711Z,99578.91
2023-03-06T09:02:48.462Z,99582.66
2023-03-06T09:05:15.162Z,99577.78
2023-03-06T09:07:41.693Z,99580.91
2023-03-06T09:10:18.503Z,99571.84
2023-03-06T09:12:50.664Z,99576.16
2023-03-06T09:15:20.025Z,99575.50
2023-03-06T09:17:47.550Z,99567.78
2023-03-06T09:20:15.456Z,99569.59
2023-03-06T09:22:42.680Z,99572.03
2023-03-06T09:25:11.103Z,99577.25
2023-03-06T09:27:37.724Z,99580.88
2023-03-06T09:30:05.228Z,99576.97
2023-03-06T09:32:31.826Z,99577.84
2023-03-06T09:34:58.562Z,99572.09
2023-03-06T09:37:25.229Z,99561.91
2023-03-06T09:39:51.796Z,99558.34
2023-03-06T09:42:23.853Z,99547.34
2023-03-06T09:44:54.612Z,99531.19
2023-03-06T09:47:52.093Z,99543.31
2023-03-06T09:50:33.884Z,99536.00
2023-03-06T09:53:23.096Z,99519.19
2023-03-06T09:56:03.464Z,99525.72
2023-03-06T09:58:34.325Z,99518.13
2023-03-06T10:01:13.995Z,99512.44
2023-03-06T10:04:05.412Z,99512.53
2023-03-06T10:06:55.297Z,99505.25
2023-03-06T10:09:28.190Z,99501.63
2023-03-06T10:12:17.254Z,99503.00
2023-03-06T10:14:48.963Z,99491.59
2023-03-06T10:17:21.855Z,99501.91
2023-03-06T10:19:49.396Z,99493.59
2023-03-06T10:22:25.960Z,99490.19
2023-03-06T10:25:22.905Z,99492.44
2023-03-06T10:27:56.024Z,99485.81
2023-03-06T10:30:26.529Z,99484.97
2023-03-06T10:32:55.871Z,99478.94
2023-03-06T10:35:30.355Z,99477.06
2023-03-06T10:38:15.474Z,99464.69
2023-03-06T10:40:53.006Z,99469.13
2023-03-06T10:43:19.693Z,99464.38
2023-03-06T10:45:51.636Z,99456.34
2023-03-06T10:48:22.410Z,99451.31
2023-03-06T10:50:49.159Z,99456.63
2023-03-06T10:53:29.230Z,99440.63
2023-03-06T10:56:00.651Z,99433.59
2023-03-06T10:58:30.332Z,99436.06
2023-03-06T11:01:00.971Z,99425.50
2023-03-06T11:03:27.688Z,99414.84
2023-03-06T11:06:06.208Z,99414.03
2023-03-06T11:08:33.735Z,99411.19
2023-03-06T11:11:12.097Z,99401.28
2023-03-06T11:13:40.434Z,99406.16
2023-03-06T11:16:18.918Z,99410.50
2023-03-06T11:18:58.044Z,99401.66
2023-03-06T11:21:32.690Z,99396.88
2023-03-06T11:24:20.094Z,99396.56
2023-03-06T11:26:53.545Z,99391.50
2023-03-06T11:29:22.890Z,99395.03
2023-03-06T11:31:52.901Z,99394.13
2023-03-06T11:34:27.013Z,99383.19
2023-03-06T11:36:58.809Z,99378.63
2023-03-06T11:39:28.450Z,99382.13
2023-03-06T11:42:18.722Z,99372.53
2023-03-06T11:45:04.246Z,99368.47
2023-03-06T11:47:41.900Z,99367.19
2023-03-06T11:50:36.358Z,99361.81
2023-03-06T11:53:06.858Z,99356.63
2023-03-06T11:56:19.677Z,99351.00
2023-03-06T11:59:14.196Z,99352.63
2023-03-06T12:02:05.119Z,99344.88
2023-03-06T12:04:55.761Z,99335.66
2023-03-06T12:07:26.128Z,99337.78
2023-03-06T12:10:25.695Z,99334.44
2023-03-06T12:13:10.978Z,99329.59
2023-03-06T12:16:04.298Z,99320.69
2023-03-06T12:18:41.808Z,99315.38
2023-03-06T12:21:26.753Z,99316.06
2023-03-06T12:24:19.084Z,99315.69
2023-03-06T12:26:48.608Z,99312.72
2023-03-06T12:29:39.855Z,99303.28
2023-03-06T12:32:37.403Z,99301.19
2023-03-06T12:35:22.338Z,99294.88
2023-03-06T12:38:08.192Z,99291.72
2023-03-06T12:40:53.728Z,99284.09
2023-03-06T12:43:35.403Z,99284.84
2023-03-06T12:46:16.420Z,99281.44
2023-03-06T12:48:48.531Z,99278.63
2023-03-06T12:51:18.819Z,99267.31
2023-03-06T12:53:45.741Z,99274.53
2023-03-06T12:56:15.718Z,99265.06
2023-03-06T12:58:53.938Z,99266.56
2023-03-06T13:01:26.641Z,99266.16
2023-03-06T13:04:17.985Z,99269.44
2023-03-06T13:06:55.596Z,99272.09
2023-03-06T13:09:31.209Z,99274.00
2023-03-06T13:12:00.678Z,99264.44
2023-03-06T13:14:34.331Z,99262.75
2023-03-06T13:17:20.904Z,99256.25
2023-03-06T13:19:48.684Z,99273.00
2023-03-06T13:22:27.733Z,99261.38
2023-03-06T13:25:19.030Z,99263.91
2023-03-06T13:27:47.259Z,99267.31
2023-03-06T13:30:42.517Z,99263.56
2023-03-06T13:33:36.345Z,99262.06
2023-03-06T13:36:26.480Z,99246.28
2023-03-06T13:38:53.054Z,99247.84
2023-03-06T13:41:22.468Z,99248.19
2023-03-06T13:43:52.060Z,99243.88
2023-03-06T13:46:28.417Z,99245.59
2023-03-06T13:49:13.238Z,99237.13
2023-03-06T13:51:49.106Z,99235.38
2023-03-06T13:54:46.741Z,99217.09
2023-03-06T13:57:42.430Z,99200.69
2023-03-06T14:00:12.000Z,99203.53
2023-03-06T14:03:03.708Z,99196.25
2023-03-06T14:05:42.215Z,99187.81
2023-03-06T14:08:20.686Z,99199.66
2023-03-06T14:10:59.271Z,99201.22
2023-03-06T14:13:41.629Z,99207.28
2023-03-06T14:16:25.473Z,99205.50
2023-03-06T14:18:55.311Z,99197.88
2023-03-06T14:21:31.273Z,99199.16
2023-03-06T14:24:02.968Z,99197.88
2023-03-06T14:26:34.280Z,99199.00
2023-03-06T14:29:02.428Z,99206.91
2023-03-06T14:31:32.584Z,99202.34
2023-03-06T14:34:01.871Z,99210.88
2023-03-06T14:36:35.128Z,99200.13
2023-03-06T14:39:33.116Z,99193.44
2023-03-06T14:42:07.306Z,99194.78
2023-03-06T14:44:34.066Z,99197.97
2023-03-06T14:47:26.958Z,99200.16
2023-03-06T14:50:18.431Z,99198.28
2023-03-06T14:52:45.722Z,99193.53
2023-03-06T14:55:19.026Z,99200.56
2023-03-06T14:57:49.921Z,99202.75
2023-03-06T15:00:21.460Z,99200.88
2023-03-06T15:02:50.697Z,99217.66
2023-03-06T15:05:29.933Z,99224.84
2023-03-06T15:08:01.987Z,99223.81
2023-03-06T15:10:31.432Z,99237.69
2023-03-06T15:13:18.793Z,99251.94
2023-03-06T15:15:57.742Z,99244.03
2023-03-06T15:18:35.383Z,99240.66
2023-03-06T15:21:19.971Z,99231.19
2023-03-06T15:23:49.550Z,99227.91
2023-03-06T15:26:33.695Z,99213.66
2023-03-06T15:29:09.697Z,99214.63
2023-03-06T15:31:40.844Z,99212.09
2023-03-06T15:34:07.592Z,99204.06
2023-03-06T15:36:36.990Z,99216.66
2023-03-06T15:39:33.848Z,99205.78
2023-03-06T15:42:16.117Z,99207.47
2023-03-06T15:44:42.891Z,99205.59
2023-03-06T15:47:11.785Z,99200.34
2023-03-06T15:49:39.468Z,99192.06
2023-03-06T15:52:09.626Z,99192.06
2023-03-06T15:54:36.619Z,99177.41
2023-03-06T15:57:05.584Z,99180.22
2023-03-06T15:59:41.220Z,99177.13
2023-03-06T16:02:15.894Z,99170.75
2023-03-06T16:04:42.636Z,99178.28
2023-03-06T16:07:09.274Z,99180.38
2023-03-06T16:09:36.270Z,99177.94
2023-03-06T16:12:03.136Z,99174.66
2023-03-06T16:14:29.878Z,99179.38
2023-03-06T16:16:57.504Z,99178.25
2023-03-06T16:19:27.721Z,99171.75
2023-03-06T16:21:56.573Z,99179.63
2023-03-06T16:24:23.357Z,99192.75
2023-03-06T16:26:51.943Z,99195.75
2023-03-06T16:29:25.988Z,99180.88
2023-03-06T16:31:52.684Z,99198.41
2023-03-06T16:34:19.921Z,99189.41
2023-03-06T16:36:54.978Z,99199.03
2023-03-06T16:39:23.943Z,99208.53
2023-03-06T16:41:51.490Z,99213.03
2023-03-06T16:44:18.624Z,99205.09
2023-03-06T16:46:47.980Z,99212.31
2023-03-06T16:49:20.252Z,99216.94
2023-03-06T16:51:47.022Z,99212.50
2023-03-06T16:54:13.888Z,99218.09
2023-03-06T16:56:41.599Z,99213.34
2023-03-06T16:59:08.706Z,99212.66
2023-03-06T17:01:35.402Z,99211.03
2023-03-06T17:04:02.156Z,99215.59
2023-03-06T17:06:30.405Z,99209.47
2023-03-06T17:08:58.169Z,99215.22
2023-03-06T17:11:29.966Z,99204.78
2023-03-06T17:13:56.506Z,99207.91
2023-03-06T17:16:23.072Z,99211.31
2023-03-06T17:18:49.803Z,99218.72
2023-03-06T17:21:16.724Z,99227.53
2023-03-06T17:23:44.549Z,99213.47
2023-03-06T17:26:18.170Z,99218.81
2023-03-06T17:28:45.896Z,99202.78
2023-03-06T17:31:19.508Z,99210.63
2023-03-06T17:33:46.482Z,99209.78
2023-03-06T17:36:14.597Z,99211.28
2023-03-06T17:38:41.821Z,99213.03
2023-03-06T17:41:10.059Z,99195.13
2023-03-06T17:43:37.438Z,99192.22
2023-03-06T17:46:06.148Z,99191.97
2023-03-06T17:48:33.845Z,99198.00
2023-03-06T17:51:00.615Z,99189.47
2023-03-06T17:53:27.583Z,99191.22
2023-03-06T17:55:55.240Z,99195.78
2023-03-06T17:58:21.805Z,99198.16
2023-03-06T18:00:48.545Z,99190.34
2023-03-06T18:03:15.234Z,99185.94
2023-03-06T18:05:41.848Z,99184.75
2023-03-06T18:08:10.289Z,99185.75
2023-03-06T18:10:41.385Z,99193.44
2023-03-06T18:13:09.309Z,99197.00
2023-03-06T18:15:40.348Z,99203.03
2023-03-06T18:18:07.358Z,99204.50
2023-03-06T18:20:34.474Z,99209.34
2023-03-06T18:23:03.779Z,99210.22
2023-03-06T18:25:33.751Z,99197.50
2023-03-06T18:28:03.389Z,99195.63
2023-03-06T18:30:29.939Z,99191.44
2023-03-06T18:32:56.507Z,99186.00
2023-03-06T18:35:23.107Z,99174.19
2023-03-06T18:37:49.826Z,99160.50
2023-03-06T18:40:16.614Z,99157.88
2023-03-06T18:42:43.159Z,99152.63
2023-03-06T18:45:11.126Z,99160.34
2023-03-06T18:47:37.687Z,99159.44
2023-03-06T18:50:04.550Z,99152.66
2023-03-06T18:52:31.124Z,99161.91
2023-03-06T18:54:57.668Z,99158.53
2023-03-06T18:57:24.262Z,99165.72
2023-03-06T18:59:50.942Z,99173.09
2023-03-06T19:02:17.523Z,99176.00
2023-03-06T19:04:44.076Z,99175.72
2023-03-06T19:07:13.967Z,99179.53
2023-03-06T19:09:40.852Z,99193.47
2023-03-06T19:12:07.697Z,99191.09
2023-03-06T19:14:36.305Z,99195.47
2023-03-06T19:17:02.966Z,99203.84
2023-03-06T19:19:29.540Z,99202.78
2023-03-06T19:22:02.266Z,99204.72
2023-03-06T19:24:28.887Z,99230.13
2023-03-06T19:26:57.940Z,99217.16
2023-03-06T19:29:25.598Z,99230.94
2023-03-06T19:31:53.280Z,99230.06
2023-03-06T19:34:21.127Z,99230.31
2023-03-06T19:36:50.785Z,99223.53
2023-03-06T19:39:17.443Z,99229.88
2023-03-06T19:41:46.282Z,99215.78
2023-03-06T19:44:13.190Z,99222.84
2023-03-06T19:46:40.841Z,99223.44
2023-03-06T19:49:12.107Z,99223.47
2023-03-06T19:51:38.842Z,99215.47
2023-03-06T19:54:05.546Z,99220.59
2023-03-06T19:56:33.690Z,99225.25
2023-03-06T19:59:00.401Z,99221.88
2023-03-06T20:01:28.247Z,99225.25
2023-03-06T20:03:59.634Z,99224.88
2023-03-06T20:06:29.260Z,99228.56
2023-03-06T20:08:55.906Z,99215.81
2023-03-06T20:11:25.813Z,99216.75
2023-03-06T20:13:52.378Z,99219.44
2023-03-06T20:16:19.464Z,99218.19
2023-03-06T20:18:46.023Z,99212.09
2023-03-06T20:21:13.607Z,99215.59
2023-03-06T20:23:40.890Z,99206.22
2023-03-06T20:26:10.316Z,99200.44
2023-03-06T20:28:39.254Z,99195.06
2023-03-06T20:31:16.809Z,99187.19
2023-03-06T20:33:45.529Z,99179.31
2023-03-06T20:36:13.979Z,99180.91
2023-03-06T20:38:40.665Z,99176.88
2023-03-06T20:41:10.853Z,99169.97
2023-03-06T20:43:37.376Z,99173.03
2023-03-06T20:46:05.867Z,99175.94
2023-03-06T20:48:32.582Z,99179.53
2023-03-06T20:51:05.452Z,99176.88
2023-03-06T20:53:34.657Z,99169.13
2023-03-06T20:56:01.382Z,99170.22
2023-03-06T20:58:30.184Z,99166.25
2023-03-06T21:00:57.446Z,99165.28
2023-03-06T21:03:24.654Z,99171.50
2023-03-06T21:05:51.255Z,99173.50
2023-03-06T21:08:17.986Z,99171.88
2023-03-06T21:10:45.624Z,99171.56
2023-03-06T21:13:12.348Z,99170.28
2023-03-06T21:15:40.098Z,99170.31
2023-03-06T21:18:06.765Z,99177.06
2023-03-06T21:20:34.336Z,99165.88
2023-03-06T21:23:04.106Z,99168.03
2023-03-06T21:25:30.794Z,99165.72
2023-03-06T21:27:58.832Z,99166.38
2023-03-06T21:30:25.677Z,99162.88
2023-03-06T21:32:52.686Z,99170.59
2023-03-06T21:35:20.032Z,99159.13
2023-03-06T21:37:47.170Z,99159.38
2023-03-06T21:40:14.606Z,99163.97
2023-03-06T21:42:41.629Z,99165.13
2023-03-06T21:45:08.841Z,99172.66
2023-03-06T21:47:38.832Z,99166.31
2023-03-06T21:50:07.458Z,99161.63
2023-03-06T21:52:34.107Z,99156.19
2023-03-06T21:55:00.707Z,99164.09
2023-03-06T21:57:27.267Z,99163.44
2023-03-06T21:59:53.849Z,99182.16
2023-03-06T22:02:20.655Z,99199.94
2023-03-06T22:04:52.569Z,99207.22
2023-03-06T22:07:20.340Z,99215.88
2023-03-06T22:09:47.336Z,99223.25
2023-03-06T22:12:13.976Z,99221.81
2023-03-06T22:14:42.906Z,99224.47
2023-03-06T22:17:09.458Z,99219.34
2023-03-06T22:19:36.002Z,99207.16
2023-03-06T22:22:03.936Z,99211.19
2023-03-06T22:24:31.977Z,99222.09
2023-03-06T22:26:58.635Z,99216.44
2023-03-06T22:29:25.330Z,99210.50
2023-03-06T22:31:52.797Z,99215.94
2023-03-06T22:34:19.434Z,99212.22
2023-03-06T22:36:46.010Z,99207.78
2023-03-06T22:39:13.228Z,99192.78
2023-03-06T22:41:40.235Z,99194.56
2023-03-06T22:44:06.849Z,99194.22
2023-03-06T22:46:33.819Z,99203.13
2023-03-06T22:49:01.321Z,99209.25
2023-03-06T22:51:29.597Z,99197.53
2023-03-06T22:53:56.358Z,99206.47
2023-03-06T22:56:23.179Z,99214.59
2023-03-06T22:58:49.948Z,99208.53
2023-03-06T23:01:21.961Z,99204.22
2023-03-06T23:03:54.592Z,99197.03
2023-03-06T23:06:36.449Z,99203.28
2023-03-06T23:09:05.827Z,99206.31
2023-03-06T23:11:32.912Z,99214.72
2023-03-06T23:13:59.840Z,99214.81
2023-03-06T23:16:26.523Z,99217.97
2023-03-06T23:18:54.013Z,99210.78
2023-03-06T23:21:21.912Z,99223.09
2023-03-06T23:23:50.598Z,99227.00
2023-03-06T23:26:18.702Z,99222.22
2023-03-06T23:28:45.623Z,99211.09
2023-03-06T23:31:18.248Z,99222.41
2023-03-06T23:33:44.935Z,99220.47
2023-03-06T23:36:14.697Z,99215.56
2023-03-06T23:38:41.597Z,99222.53
2023-03-06T23:41:18.118Z,99220.63
2023-03-06T23:43:45.637Z,99215.56
2023-03-06T23:46:12.841Z,99213.88
2023-03-06T23:48:41.032Z,99209.25
2023-03-06T23:51:17.772Z,99217.41
2023-03-06T23:53:46.144Z,99216.03
2023-03-06T23:56:13.527Z,99215.44
2023-03-06T23:58:40.795Z,99228.19
